Time;durP1;ratioP1;P1;durP2;ratioP2;P2;SDS_P1;SDS_P2;PMS_P1;PMS_P2;Temp;Humidity;BMP_temperature;BMP_pressure;BME280_temperature;BME280_humidity;BME280_pressure;Samples;Min_cycle;Max_cycle;Signal;HPM_P1;HPM_P2
2024/02/07 00:01:07;;;;;;;15.20;8.50;;;6.90;99.90;;;;;;485075;245;27953;-72
2024/02/07 00:03:08;;;;;;;16.03;9.10;;;6.90;99.90;;;;;;485070;245;28465;-71
2024/02/07 00:05:09;;;;;;;15.30;9.43;;;6.90;99.90;;;;;;484949;245;28750;-71
2024/02/07 00:07:11;;;;;;;13.80;8.93;;;7.00;99.90;;;;;;485043;245;28362;-72
2024/02/07 00:09:12;;;;;;;11.70;8.07;;;7.00;99.90;;;;;;485097;245;28960;-74
2024/02/07 00:11:13;;;;;;;12.67;9.43;;;7.00;99.90;;;;;;485083;245;27982;-71
2024/02/07 00:13:14;;;;;;;13.38;8.27;;;7.00;99.90;;;;;;485091;245;27887;-72
2024/02/07 00:15:16;;;;;;;24.10;9.80;;;7.00;99.90;;;;;;485083;245;27486;-71
2024/02/07 00:17:17;;;;;;;12.60;9.30;;;7.00;99.90;;;;;;485059;245;28695;-72
2024/02/07 00:19:18;;;;;;;12.03;8.60;;;7.00;99.90;;;;;;485105;245;27973;-73
2024/02/07 00:21:20;;;;;;;14.07;9.10;;;7.00;99.90;;;;;;485083;245;28493;-72
2024/02/07 00:23:21;;;;;;;12.43;9.10;;;7.00;99.90;;;;;;485033;245;28132;-72
2024/02/07 00:25:22;;;;;;;15.20;9.90;;;7.00;99.90;;;;;;485074;245;30275;-72
2024/02/07 00:27:23;;;;;;;14.77;10.40;;;7.00;99.90;;;;;;485026;245;28128;-71
2024/02/07 00:29:25;;;;;;;14.13;8.60;;;7.00;99.90;;;;;;485093;245;28031;-71
2024/02/07 00:31:26;;;;;;;15.07;8.93;;;7.00;99.90;;;;;;484952;245;28047;-72
2024/02/07 00:33:27;;;;;;;13.70;8.73;;;7.00;99.90;;;;;;485031;245;27983;-72
2024/02/07 00:35:28;;;;;;;17.30;8.90;;;7.00;99.90;;;;;;485101;245;28324;-74
2024/02/07 00:37:30;;;;;;;13.80;8.65;;;7.00;99.90;;;;;;485010;245;28284;-72
2024/02/07 00:39:31;;;;;;;15.30;9.20;;;7.10;99.90;;;;;;485068;245;27620;-71
2024/02/07 00:41:32;;;;;;;16.10;9.00;;;7.10;99.90;;;;;;485049;245;27394;-72
2024/02/07 00:43:33;;;;;;;15.07;10.00;;;7.10;99.90;;;;;;485006;245;27909;-71
2024/02/07 00:45:35;;;;;;;22.47;10.77;;;7.10;99.90;;;;;;485051;245;28009;-72
2024/02/07 00:47:36;;;;;;;13.80;9.30;;;7.00;99.90;;;;;;485049;245;28908;-71
2024/02/07 00:49:37;;;;;;;13.73;9.30;;;7.10;99.90;;;;;;485040;245;28147;-72
2024/02/07 00:51:38;;;;;;;15.10;9.70;;;7.10;99.90;;;;;;484985;245;29324;-72
2024/02/07 00:53:40;;;;;;;18.90;10.20;;;7.00;99.90;;;;;;484274;245;29364;-71
2024/02/07 00:55:41;;;;;;;16.37;10.30;;;7.00;99.90;;;;;;484332;245;28896;-72
2024/02/07 00:57:42;;;;;;;18.20;10.43;;;7.00;99.90;;;;;;484499;245;28935;-71
2024/02/07 00:59:43;;;;;;;13.97;9.47;;;7.00;99.90;;;;;;484819;245;27686;-71
2024/02/07 01:01:45;;;;;;;17.23;9.60;;;7.00;99.90;;;;;;485120;245;27977;-72
2024/02/07 01:03:46;;;;;;;19.80;10.60;;;7.00;99.90;;;;;;485093;245;27860;-72
2024/02/07 01:05:47;;;;;;;16.57;10.00;;;7.00;99.90;;;;;;485056;245;28069;-72
2024/02/07 01:07:48;;;;;;;18.10;10.27;;;7.00;99.90;;;;;;485087;245;27983;-72
2024/02/07 01:09:50;;;;;;;19.17;10.77;;;7.00;99.90;;;;;;485122;245;28528;-71
2024/02/07 01:11:51;;;;;;;15.10;9.77;;;7.00;99.90;;;;;;485114;245;28909;-73
2024/02/07 01:13:52;;;;;;;14.70;9.40;;;7.00;99.90;;;;;;485114;245;28519;-71
2024/02/07 01:15:53;;;;;;;16.83;10.07;;;7.00;99.90;;;;;;485088;245;28112;-72
2024/02/07 01:17:55;;;;;;;25.55;11.07;;;7.00;99.90;;;;;;485115;245;28002;-71
2024/02/07 01:19:56;;;;;;;20.13;10.20;;;7.00;99.90;;;;;;485151;245;27494;-72
2024/02/07 01:21:57;;;;;;;17.70;10.00;;;7.00;99.90;;;;;;485120;245;27914;-72
2024/02/07 01:23:58;;;;;;;18.10;9.77;;;7.00;99.90;;;;;;485125;245;28298;-71
2024/02/07 01:26:01;;;;;;;14.30;9.40;;;7.00;99.90;;;;;;485073;245;27900;-72
2024/02/07 01:28:01;;;;;;;16.53;9.57;;;7.00;99.90;;;;;;485109;245;28553;-74
2024/02/07 01:30:02;;;;;;;13.07;10.10;;;7.00;99.90;;;;;;485138;245;28309;-71
2024/02/07 01:32:04;;;;;;;16.00;9.33;;;7.10;99.90;;;;;;485110;245;28360;-72
2024/02/07 01:34:05;;;;;;;21.60;10.50;;;7.10;99.90;;;;;;485095;245;28657;-72
2024/02/07 01:36:06;;;;;;;15.80;9.73;;;7.10;99.90;;;;;;485011;245;27505;-72
2024/02/07 01:38:07;;;;;;;13.60;8.90;;;7.00;99.90;;;;;;485060;245;28011;-72
2024/02/07 01:40:10;;;;;;;15.50;10.17;;;7.00;99.90;;;;;;485082;245;27840;-71
2024/02/07 01:42:10;;;;;;;18.13;9.87;;;7.00;99.90;;;;;;484949;245;27937;-72
2024/02/07 01:44:11;;;;;;;17.10;10.17;;;7.00;99.90;;;;;;485060;245;28736;-72
2024/02/07 01:46:12;;;;;;;12.20;9.07;;;7.00;99.90;;;;;;485065;245;28431;-71
2024/02/07 01:48:13;;;;;;;16.43;9.87;;;7.10;99.90;;;;;;485086;245;28704;-72
2024/02/07 01:50:15;;;;;;;15.87;9.90;;;7.10;99.90;;;;;;485078;245;28197;-71
2024/02/07 01:52:17;;;;;;;14.30;8.87;;;7.10;99.90;;;;;;485045;245;28462;-73
2024/02/07 01:54:17;;;;;;;18.37;10.37;;;7.10;99.90;;;;;;485073;245;29438;-73
2024/02/07 01:56:19;;;;;;;16.40;10.00;;;7.10;99.90;;;;;;484991;245;27490;-71
2024/02/07 01:58:20;;;;;;;16.30;9.83;;;7.10;99.90;;;;;;485067;245;27883;-72
2024/02/07 02:00:24;;;;;;;14.60;9.20;;;7.10;99.90;;;;;;485039;245;27516;-71
2024/02/07 02:02:23;;;;;;;13.13;8.57;;;7.10;99.90;;;;;;484801;245;27914;-72
2024/02/07 02:04:24;;;;;;;27.60;9.10;;;7.10;99.90;;;;;;485086;245;28020;-74
2024/02/07 02:06:25;;;;;;;13.83;9.30;;;7.10;99.90;;;;;;485015;245;27996;-72
2024/02/07 02:08:27;;;;;;;14.97;8.97;;;7.10;99.90;;;;;;485049;245;28036;-73
2024/02/07 02:10:27;;;;;;;17.77;9.90;;;7.10;99.90;;;;;;484930;245;28053;-74
2024/02/07 02:12:29;;;;;;;15.60;9.83;;;7.10;99.90;;;;;;485081;245;27969;-71
2024/02/07 02:14:30;;;;;;;16.50;9.00;;;7.10;99.90;;;;;;485100;245;27973;-72
2024/02/07 02:16:31;;;;;;;14.93;9.30;;;7.10;99.90;;;;;;485027;245;28070;-72
2024/02/07 02:18:32;;;;;;;13.67;9.70;;;7.10;99.90;;;;;;485072;245;27663;-72
2024/02/07 02:20:36;;;;;;;13.90;8.93;;;7.10;99.90;;;;;;485064;245;28792;-74
2024/02/07 02:22:35;;;;;;;15.93;8.27;;;7.10;99.90;;;;;;484859;245;28279;-72
2024/02/07 02:24:36;;;;;;;13.23;9.30;;;7.10;99.90;;;;;;485075;245;28346;-72
2024/02/07 02:26:38;;;;;;;14.67;9.53;;;7.10;99.90;;;;;;485007;245;28037;-71
2024/02/07 02:28:39;;;;;;;12.63;9.13;;;7.10;99.90;;;;;;485003;245;27897;-71
2024/02/07 02:30:50;;;;;;;16.20;9.20;;;7.10;99.90;;;;;;485117;245;28059;-72
2024/02/07 02:32:42;;;;;;;28.57;8.70;;;7.10;99.90;;;;;;484163;245;28932;-71
2024/02/07 02:34:42;;;;;;;17.40;9.43;;;7.10;99.90;;;;;;485024;245;28022;-72
2024/02/07 02:36:44;;;;;;;14.50;9.80;;;7.10;99.90;;;;;;484998;245;28047;-72
2024/02/07 02:38:45;;;;;;;15.23;9.47;;;7.20;99.90;;;;;;485068;245;27879;-71
2024/02/07 02:40:50;;;;;;;18.03;9.70;;;7.20;99.90;;;;;;485082;245;28076;-73
2024/02/07 02:42:47;;;;;;;19.27;9.50;;;7.20;99.90;;;;;;484775;245;28458;-71
2024/02/07 02:44:49;;;;;;;23.60;9.97;;;7.20;99.90;;;;;;485000;245;28179;-72
2024/02/07 02:46:50;;;;;;;15.83;9.17;;;7.20;99.90;;;;;;484940;245;28529;-71
2024/02/07 02:48:51;;;;;;;16.27;9.53;;;7.20;99.90;;;;;;485070;245;28151;-71
2024/02/07 02:50:52;;;;;;;19.77;10.80;;;7.20;99.90;;;;;;485077;245;28857;-72
2024/02/07 02:52:54;;;;;;;13.70;9.57;;;7.20;99.90;;;;;;485070;245;28021;-72
2024/02/07 02:54:56;;;;;;;16.50;9.83;;;7.20;99.90;;;;;;485066;245;28021;-72
2024/02/07 02:56:59;;;;;;;18.60;8.97;;;7.20;99.90;;;;;;484982;245;28504;-72
2024/02/07 02:58:58;;;;;;;16.97;9.90;;;7.20;99.90;;;;;;484837;245;28096;-72
2024/02/07 03:01:02;;;;;;;16.70;9.57;;;7.20;99.90;;;;;;484991;245;28005;-72
2024/02/07 03:03:02;;;;;;;18.83;8.90;;;7.20;99.90;;;;;;484828;245;28758;-71
2024/02/07 03:05:02;;;;;;;20.13;9.30;;;7.20;99.90;;;;;;484942;245;28025;-72
2024/02/07 03:07:25;;;;;;;15.50;10.07;;;7.20;99.90;;;;;;484993;245;28364;-73
2024/02/07 03:09:19;;;;;;;17.10;9.90;;;7.20;99.90;;;;;;484218;245;28027;-72
2024/02/07 03:11:08;;;;;;;16.90;9.13;;;7.20;99.90;;;;;;484064;245;28080;-71
2024/02/07 03:13:10;;;;;;;17.53;9.87;;;7.20;99.90;;;;;;485065;245;28014;-72
2024/02/07 03:15:10;;;;;;;18.73;8.33;;;7.20;99.90;;;;;;485107;245;28040;-71
2024/02/07 03:17:12;;;;;;;16.60;9.50;;;7.20;99.90;;;;;;485053;245;27857;-72
2024/02/07 03:19:13;;;;;;;18.13;10.10;;;7.20;99.90;;;;;;485092;245;28253;-72
2024/02/07 03:21:14;;;;;;;18.87;10.90;;;7.20;99.90;;;;;;485064;245;28909;-72
2024/02/07 03:23:15;;;;;;;14.17;9.30;;;7.30;99.90;;;;;;485022;245;27659;-72
2024/02/07 03:25:20;;;;;;;15.50;9.50;;;7.20;99.90;;;;;;485113;245;28509;-73
2024/02/07 03:27:21;;;;;;;20.03;10.67;;;7.30;99.90;;;;;;485057;245;28086;-73
2024/02/07 03:29:22;;;;;;;18.67;11.10;;;7.30;99.90;;;;;;485078;245;28097;-71
2024/02/07 03:31:24;;;;;;;14.83;10.07;;;7.20;99.90;;;;;;485077;245;28142;-72
2024/02/07 03:33:28;;;;;;;19.47;9.40;;;7.20;99.90;;;;;;485077;245;28169;-74
2024/02/07 03:35:30;;;;;;;23.30;10.87;;;7.20;99.90;;;;;;485076;245;28108;-72
2024/02/07 03:37:30;;;;;;;25.90;12.50;;;7.20;99.90;;;;;;484970;245;28050;-72
2024/02/07 03:39:31;;;;;;;18.70;9.80;;;7.20;99.90;;;;;;485108;245;28076;-72
2024/02/07 03:41:33;;;;;;;21.30;10.60;;;7.20;99.90;;;;;;485098;245;28523;-72
2024/02/07 03:43:34;;;;;;;24.53;10.07;;;7.20;99.90;;;;;;485071;245;28568;-72
2024/02/07 03:45:36;;;;;;;18.07;10.33;;;7.20;99.90;;;;;;485066;245;28610;-72
2024/02/07 03:47:39;;;;;;;22.53;10.80;;;7.20;99.90;;;;;;484925;245;27961;-72
2024/02/07 03:49:40;;;;;;;19.53;9.57;;;7.20;99.90;;;;;;485082;245;28077;-72
2024/02/07 03:51:43;;;;;;;14.80;9.40;;;7.20;99.90;;;;;;485062;245;28728;-73
2024/02/07 03:53:43;;;;;;;16.10;9.47;;;7.20;99.90;;;;;;485006;245;27732;-72
2024/02/07 03:55:44;;;;;;;17.17;9.80;;;7.20;99.90;;;;;;485073;245;28012;-71
2024/02/07 03:57:45;;;;;;;16.57;9.70;;;7.20;99.90;;;;;;485073;245;28164;-73
2024/02/07 03:59:46;;;;;;;17.70;10.57;;;7.20;99.90;;;;;;485074;245;28066;-71
2024/02/07 04:01:48;;;;;;;21.20;10.80;;;7.20;99.90;;;;;;485047;245;27908;-72
2024/02/07 04:03:49;;;;;;;18.10;9.93;;;7.20;99.90;;;;;;485063;245;28366;-71
2024/02/07 04:05:50;;;;;;;19.40;11.67;;;7.20;99.90;;;;;;485063;245;28497;-71
2024/02/07 04:07:51;;;;;;;17.10;10.23;;;7.20;99.90;;;;;;485086;245;28938;-72
2024/02/07 04:09:53;;;;;;;17.10;9.83;;;7.20;99.90;;;;;;485086;245;28360;-72
2024/02/07 05:16:25;;;;;;;17.17;11.00;;;7.40;99.90;;;;;;485090;245;28897;-73
2024/02/07 05:18:25;;;;;;;27.33;11.67;;;7.40;99.90;;;;;;485064;245;28047;-71
2024/02/07 05:20:26;;;;;;;22.60;10.60;;;7.30;99.90;;;;;;485091;245;28447;-71
2024/02/07 05:22:27;;;;;;;24.10;11.40;;;7.30;99.90;;;;;;485076;245;29684;-71
2024/02/07 05:24:29;;;;;;;16.93;10.43;;;7.40;99.90;;;;;;485105;245;28356;-71
2024/02/07 05:26:33;;;;;;;17.17;11.43;;;7.40;99.90;;;;;;485077;245;28479;-73
2024/02/07 05:28:32;;;;;;;17.80;10.33;;;7.40;99.90;;;;;;484935;245;27857;-72
2024/02/07 05:30:33;;;;;;;16.73;10.00;;;7.30;99.90;;;;;;485106;245;28044;-71
2024/02/07 05:32:34;;;;;;;17.00;10.57;;;7.40;99.90;;;;;;485118;245;28154;-71
2024/02/07 05:34:35;;;;;;;19.57;10.30;;;7.40;99.90;;;;;;485112;245;27971;-71
2024/02/07 05:36:37;;;;;;;18.13;11.43;;;7.40;99.90;;;;;;485081;245;28061;-71
2024/02/07 05:38:39;;;;;;;18.27;10.60;;;7.40;99.90;;;;;;485084;245;28175;-71
2024/02/07 05:40:39;;;;;;;16.93;10.40;;;7.40;99.90;;;;;;485049;245;28031;-72
2024/02/07 05:42:41;;;;;;;18.43;10.27;;;7.40;99.90;;;;;;485113;245;28520;-73
2024/02/07 05:44:42;;;;;;;17.87;10.73;;;7.40;99.90;;;;;;484983;245;28162;-72
2024/02/07 05:46:43;;;;;;;22.27;10.67;;;7.40;99.90;;;;;;485026;245;27864;-72
2024/02/07 05:48:44;;;;;;;18.53;9.90;;;7.40;99.90;;;;;;485030;245;27935;-72
2024/02/07 05:50:46;;;;;;;21.10;10.87;;;7.40;99.90;;;;;;485067;245;28579;-71
2024/02/07 05:52:47;;;;;;;20.50;10.33;;;7.40;99.90;;;;;;485066;245;28025;-72
2024/02/07 05:54:49;;;;;;;19.40;10.67;;;7.30;99.90;;;;;;485059;245;28419;-72
2024/02/07 05:56:49;;;;;;;22.40;12.23;;;7.30;99.90;;;;;;484962;245;28006;-72
2024/02/07 05:58:51;;;;;;;16.77;9.80;;;7.30;99.90;;;;;;485075;245;28125;-72
2024/02/07 06:00:52;;;;;;;21.37;11.50;;;7.30;99.90;;;;;;485057;245;28160;-72
2024/02/07 06:02:54;;;;;;;18.83;11.43;;;7.30;99.90;;;;;;485084;245;27887;-72
2024/02/07 06:05:02;;;;;;;15.77;11.37;;;7.30;99.90;;;;;;485023;245;27906;-71
2024/02/07 06:06:56;;;;;;;20.33;11.50;;;7.30;99.90;;;;;;484609;245;28085;-72
2024/02/07 06:08:58;;;;;;;17.57;11.00;;;7.30;99.90;;;;;;484961;245;28544;-73
2024/02/07 06:10:58;;;;;;;18.20;10.27;;;7.30;99.90;;;;;;485027;245;28358;-71
2024/02/07 06:12:59;;;;;;;20.13;10.83;;;7.30;99.90;;;;;;485037;245;28531;-71
2024/02/07 06:15:01;;;;;;;18.93;11.17;;;7.30;99.90;;;;;;485053;245;27962;-71
2024/02/07 06:17:02;;;;;;;16.03;11.13;;;7.30;99.90;;;;;;485043;245;27855;-72
2024/02/07 06:19:03;;;;;;;20.77;11.10;;;7.30;99.90;;;;;;485092;245;27959;-73
2024/02/07 06:21:04;;;;;;;18.50;11.00;;;7.30;99.90;;;;;;485067;245;27675;-72
2024/02/07 06:23:06;;;;;;;20.87;10.50;;;7.30;99.90;;;;;;485028;245;28124;-71
2024/02/07 06:25:07;;;;;;;18.30;10.83;;;7.30;99.90;;;;;;485023;245;28103;-72
2024/02/07 06:27:08;;;;;;;20.57;9.60;;;7.30;99.90;;;;;;485059;245;28170;-71
2024/02/07 06:29:09;;;;;;;18.70;10.77;;;7.30;99.90;;;;;;485113;245;28575;-72
2024/02/07 06:31:11;;;;;;;15.97;10.50;;;7.30;99.90;;;;;;485046;245;28071;-73
2024/02/07 06:33:12;;;;;;;23.15;10.70;;;7.30;99.90;;;;;;485073;245;28025;-72
2024/02/07 06:35:13;;;;;;;26.93;11.77;;;7.30;99.90;;;;;;485136;245;27620;-73
2024/02/07 06:37:14;;;;;;;18.10;10.80;;;7.30;99.90;;;;;;485080;245;28045;-72
2024/02/07 06:39:16;;;;;;;19.40;10.63;;;7.30;99.90;;;;;;485115;245;28960;-72
2024/02/07 06:41:17;;;;;;;19.87;10.90;;;7.30;99.90;;;;;;485078;245;29110;-72
2024/02/07 06:43:18;;;;;;;19.63;10.37;;;7.30;99.90;;;;;;485010;245;28330;-71
2024/02/07 06:45:19;;;;;;;20.80;10.27;;;7.30;99.90;;;;;;485068;245;28547;-74
2024/02/07 06:47:21;;;;;;;19.03;11.20;;;7.30;99.90;;;;;;485069;245;27973;-72
2024/02/07 06:49:22;;;;;;;25.70;10.47;;;7.30;99.90;;;;;;485081;245;29006;-72
2024/02/07 06:51:23;;;;;;;18.67;9.90;;;7.30;99.90;;;;;;485073;245;28187;-72
2024/02/07 06:53:24;;;;;;;15.60;10.50;;;7.30;99.90;;;;;;485124;245;28218;-71
2024/02/07 06:55:26;;;;;;;16.33;10.00;;;7.30;99.90;;;;;;485109;245;28164;-72
2024/02/07 06:57:27;;;;;;;15.63;9.90;;;7.30;99.90;;;;;;485030;245;28153;-71
2024/02/07 06:59:28;;;;;;;19.50;10.10;;;7.30;99.90;;;;;;485050;245;28789;-72
2024/02/07 07:01:29;;;;;;;17.13;9.50;;;7.30;99.90;;;;;;485099;245;28291;-73
2024/02/07 07:03:31;;;;;;;18.17;9.93;;;7.30;99.90;;;;;;485075;245;28306;-72
2024/02/07 07:05:32;;;;;;;19.70;9.80;;;7.30;99.90;;;;;;485098;245;28499;-71
2024/02/07 07:07:33;;;;;;;16.47;10.33;;;7.30;99.90;;;;;;485080;245;27987;-71
2024/02/07 07:09:35;;;;;;;19.03;10.10;;;7.30;99.90;;;;;;485047;245;27785;-72
2024/02/07 07:11:36;;;;;;;16.23;9.87;;;7.30;99.90;;;;;;485098;245;28161;-73
2024/02/07 07:13:37;;;;;;;16.90;10.57;;;7.30;99.90;;;;;;485080;245;28840;-71
2024/02/07 07:15:38;;;;;;;19.50;10.70;;;7.30;99.90;;;;;;485039;245;28097;-72
2024/02/07 07:17:40;;;;;;;20.00;10.00;;;7.40;99.90;;;;;;485088;245;27846;-71
2024/02/07 07:19:41;;;;;;;16.07;9.97;;;7.30;99.90;;;;;;485095;245;28081;-71
2024/02/07 07:21:42;;;;;;;17.37;9.93;;;7.40;99.90;;;;;;485106;245;28495;-72
2024/02/07 07:23:43;;;;;;;16.70;9.93;;;7.40;99.90;;;;;;485095;245;28420;-71
2024/02/07 07:25:45;;;;;;;16.07;9.53;;;7.40;99.90;;;;;;485055;245;28743;-73
2024/02/07 07:27:46;;;;;;;16.80;10.37;;;7.40;99.90;;;;;;485073;245;30183;-71
2024/02/07 07:29:47;;;;;;;16.07;9.67;;;7.40;99.90;;;;;;485119;245;27832;-71
2024/02/07 07:31:48;;;;;;;16.33;9.40;;;7.40;99.90;;;;;;485123;245;27987;-72
2024/02/07 07:33:50;;;;;;;14.77;9.27;;;7.40;99.90;;;;;;485100;245;27930;-71
2024/02/07 07:35:51;;;;;;;15.50;9.47;;;7.40;99.90;;;;;;485049;245;28023;-72
2024/02/07 07:37:52;;;;;;;14.03;9.20;;;7.40;99.90;;;;;;485104;245;28375;-72
2024/02/07 07:39:53;;;;;;;15.50;9.67;;;7.40;99.90;;;;;;485095;245;27976;-72
2024/02/07 07:41:55;;;;;;;14.77;9.67;;;7.40;99.90;;;;;;485126;245;27927;-71
2024/02/07 07:43:57;;;;;;;12.77;9.13;;;7.40;99.90;;;;;;484996;245;28151;-72
2024/02/07 07:45:57;;;;;;;13.67;9.10;;;7.40;99.90;;;;;;484981;245;28234;-72
2024/02/07 07:47:58;;;;;;;15.07;9.53;;;7.40;99.90;;;;;;485124;245;28314;-73
2024/02/07 07:50:00;;;;;;;17.67;9.23;;;7.40;99.90;;;;;;485076;245;28482;-71
2024/02/07 07:52:01;;;;;;;13.80;9.23;;;7.40;99.90;;;;;;485066;245;28007;-72
2024/02/07 07:54:02;;;;;;;15.27;9.30;;;7.40;99.90;;;;;;485023;245;28867;-72
2024/02/07 07:56:03;;;;;;;13.97;9.23;;;7.40;99.90;;;;;;485056;245;28073;-72
2024/02/07 07:58:05;;;;;;;18.93;9.70;;;7.40;99.90;;;;;;485057;245;27921;-72
2024/02/07 08:00:06;;;;;;;17.60;10.13;;;7.40;99.90;;;;;;485084;245;28065;-71
2024/02/07 08:02:07;;;;;;;12.97;8.40;;;7.40;99.90;;;;;;485049;245;27912;-72
2024/02/07 08:04:08;;;;;;;13.80;8.77;;;7.40;99.90;;;;;;485101;245;28191;-72
2024/02/07 08:06:10;;;;;;;15.03;8.70;;;7.50;99.90;;;;;;485101;245;27981;-72
2024/02/07 08:08:11;;;;;;;13.20;8.17;;;7.50;99.90;;;;;;485110;245;28474;-72
2024/02/07 08:10:12;;;;;;;13.83;8.50;;;7.50;99.90;;;;;;485113;245;28190;-72
2024/02/07 08:12:16;;;;;;;14.50;8.47;;;7.50;99.90;;;;;;485068;245;28531;-72
2024/02/07 08:14:18;;;;;;;11.83;8.10;;;7.60;99.90;;;;;;485098;245;28892;-72
2024/02/07 08:16:19;;;;;;;13.80;7.77;;;7.60;99.90;;;;;;485142;245;27827;-71
2024/02/07 08:18:20;;;;;;;17.77;9.20;;;7.60;99.90;;;;;;485090;245;27733;-72
2024/02/07 08:20:22;;;;;;;16.03;8.60;;;7.50;99.90;;;;;;485107;245;27761;-72
2024/02/07 08:22:23;;;;;;;12.63;8.37;;;7.50;99.90;;;;;;485076;245;27888;-72
2024/02/07 08:24:25;;;;;;;18.60;9.30;;;7.60;99.90;;;;;;485112;245;28122;-72
2024/02/07 08:26:25;;;;;;;12.77;9.03;;;7.60;99.90;;;;;;485058;245;28028;-72
2024/02/07 08:28:26;;;;;;;14.27;7.77;;;7.60;99.90;;;;;;485042;245;27841;-71
2024/02/07 08:30:28;;;;;;;21.57;9.40;;;7.60;99.90;;;;;;485069;245;28093;-72
2024/02/07 08:32:29;;;;;;;15.37;9.60;;;7.60;99.90;;;;;;485104;245;28040;-74
2024/02/07 08:34:30;;;;;;;14.67;9.20;;;7.60;99.90;;;;;;485107;245;28588;-71
2024/02/07 08:36:31;;;;;;;12.80;8.77;;;7.60;99.90;;;;;;485065;245;28597;-73
2024/02/07 08:38:33;;;;;;;12.00;7.50;;;7.60;99.90;;;;;;485074;245;28387;-71
2024/02/07 08:40:34;;;;;;;14.93;8.73;;;7.60;99.90;;;;;;485078;245;28615;-72
2024/02/07 08:42:35;;;;;;;16.80;9.20;;;7.70;99.90;;;;;;485098;245;28205;-74
2024/02/07 08:44:38;;;;;;;15.17;8.47;;;7.70;99.90;;;;;;485081;245;27963;-72
2024/02/07 08:46:38;;;;;;;13.87;9.00;;;7.70;99.90;;;;;;484937;245;28036;-72
2024/02/07 08:48:39;;;;;;;16.10;8.53;;;7.80;99.90;;;;;;485063;245;27863;-71
2024/02/07 08:50:40;;;;;;;15.33;8.33;;;7.80;99.90;;;;;;485109;245;28110;-72
2024/02/07 08:52:41;;;;;;;9.60;8.20;;;7.80;99.90;;;;;;485104;245;27761;-73
2024/02/07 08:54:43;;;;;;;15.50;8.70;;;7.90;99.90;;;;;;485088;245;27986;-72
2024/02/07 08:56:44;;;;;;;14.03;7.53;;;7.80;99.90;;;;;;485030;245;27781;-72
2024/02/07 08:58:45;;;;;;;10.83;8.07;;;7.90;99.90;;;;;;485060;245;27549;-71
2024/02/07 09:00:46;;;;;;;10.80;6.73;;;7.90;99.90;;;;;;485096;245;27962;-71
2024/02/07 09:02:49;;;;;;;10.30;7.40;;;7.90;99.90;;;;;;485086;245;28453;-73
2024/02/07 09:04:49;;;;;;;10.97;6.40;;;8.00;99.90;;;;;;484926;245;28542;-72
2024/02/07 09:06:50;;;;;;;11.63;7.60;;;8.00;99.90;;;;;;484999;245;27980;-72
2024/02/07 09:08:51;;;;;;;16.30;7.53;;;8.10;99.90;;;;;;485087;245;28322;-74
2024/02/07 09:10:53;;;;;;;11.27;7.23;;;8.00;99.90;;;;;;485105;245;27989;-72
2024/02/07 09:12:54;;;;;;;15.60;7.03;;;8.00;99.90;;;;;;485060;243;28063;-72
2024/02/07 09:14:55;;;;;;;10.77;6.50;;;8.00;99.90;;;;;;485051;245;28018;-71
2024/02/07 09:16:56;;;;;;;10.40;6.73;;;8.00;99.90;;;;;;485035;245;27635;-72
2024/02/07 09:18:58;;;;;;;11.87;7.63;;;8.00;99.90;;;;;;485099;245;28292;-74
2024/02/07 09:20:59;;;;;;;16.27;7.50;;;8.00;99.90;;;;;;485075;245;28161;-72
2024/02/07 09:23:00;;;;;;;8.70;5.63;;;8.00;99.90;;;;;;485075;245;28106;-72
2024/02/07 09:25:01;;;;;;;9.80;6.80;;;8.00;99.90;;;;;;485048;245;29298;-72
2024/02/07 09:27:03;;;;;;;13.77;6.80;;;8.00;99.90;;;;;;485045;245;28505;-71
2024/02/07 09:29:04;;;;;;;10.93;5.97;;;8.00;99.90;;;;;;485102;245;28093;-73
2024/02/07 09:31:05;;;;;;;12.10;6.70;;;8.00;99.90;;;;;;485069;245;28250;-72
2024/02/07 09:33:06;;;;;;;9.13;6.03;;;7.90;99.90;;;;;;485052;245;28048;-72
2024/02/07 09:35:08;;;;;;;14.37;7.77;;;7.90;99.90;;;;;;485116;245;27830;-72
2024/02/07 09:37:09;;;;;;;14.80;7.00;;;7.90;99.90;;;;;;485040;245;27860;-71
2024/02/07 09:39:10;;;;;;;9.10;6.03;;;8.00;99.90;;;;;;485084;245;27948;-73
2024/02/07 09:41:11;;;;;;;11.43;6.27;;;7.90;99.90;;;;;;485050;245;28022;-72
2024/02/07 09:43:13;;;;;;;13.70;6.50;;;7.90;99.90;;;;;;485029;245;27924;-72
2024/02/07 09:45:14;;;;;;;9.03;5.60;;;7.90;99.90;;;;;;485005;245;28252;-73
2024/02/07 09:47:15;;;;;;;12.07;6.00;;;7.90;99.90;;;;;;484985;245;27987;-72
2024/02/07 09:49:16;;;;;;;10.60;6.70;;;7.90;99.90;;;;;;485030;245;27860;-73
2024/02/07 09:51:18;;;;;;;13.37;7.13;;;7.90;99.90;;;;;;485028;245;28029;-72
2024/02/07 09:53:19;;;;;;;8.83;6.30;;;8.00;99.90;;;;;;485083;245;28458;-72
2024/02/07 09:55:20;;;;;;;10.43;6.10;;;8.00;99.90;;;;;;485075;245;28610;-74
2024/02/07 09:57:21;;;;;;;9.03;5.80;;;8.00;99.90;;;;;;485017;245;28422;-72
2024/02/07 09:59:23;;;;;;;10.33;6.20;;;8.10;99.90;;;;;;485057;245;28520;-73
2024/02/07 10:01:27;;;;;;;14.97;6.40;;;8.00;99.90;;;;;;485059;245;28002;-72
2024/02/07 10:03:25;;;;;;;13.53;5.93;;;8.00;99.90;;;;;;484822;245;28110;-72
2024/02/07 10:05:26;;;;;;;11.97;6.03;;;8.00;99.90;;;;;;485066;245;28131;-72
2024/02/07 10:07:28;;;;;;;10.03;6.40;;;8.00;99.90;;;;;;485013;245;27981;-72
2024/02/07 10:09:30;;;;;;;10.73;6.10;;;8.00;99.90;;;;;;485044;245;28010;-72
2024/02/07 10:11:30;;;;;;;15.67;6.57;;;8.00;99.90;;;;;;485048;245;27872;-73
2024/02/07 10:13:31;;;;;;;12.00;6.27;;;8.00;99.90;;;;;;485047;245;28073;-71
2024/02/07 10:15:33;;;;;;;12.20;6.10;;;8.00;99.90;;;;;;485089;245;28241;-72
2024/02/07 10:17:34;;;;;;;9.50;5.83;;;7.90;99.90;;;;;;485036;245;27860;-72
2024/02/07 10:19:35;;;;;;;8.90;6.10;;;8.00;99.90;;;;;;485063;245;28491;-71
2024/02/07 10:21:36;;;;;;;9.40;5.07;;;8.00;99.90;;;;;;485096;245;28496;-73
2024/02/07 10:23:38;;;;;;;12.03;6.10;;;8.00;99.90;;;;;;485033;245;28806;-71
2024/02/07 10:25:39;;;;;;;9.10;6.07;;;8.00;99.90;;;;;;484985;245;28417;-72
2024/02/07 10:27:40;;;;;;;7.67;5.30;;;8.00;99.90;;;;;;485051;245;28193;-71
2024/02/07 10:29:41;;;;;;;7.90;5.83;;;8.10;99.90;;;;;;485089;245;27961;-72
2024/02/07 10:31:43;;;;;;;9.90;6.17;;;8.20;99.90;;;;;;485081;245;28126;-73
2024/02/07 10:33:48;;;;;;;7.33;5.63;;;8.10;99.90;;;;;;485067;245;27825;-71
2024/02/07 10:35:48;;;;;;;10.30;6.13;;;8.10;99.90;;;;;;485003;245;27975;-71
2024/02/07 10:37:55;;;;;;;7.00;5.63;;;8.20;99.90;;;;;;485071;245;27990;-71
2024/02/07 10:39:51;;;;;;;11.03;6.63;;;8.20;99.90;;;;;;484682;245;28014;-73
2024/02/07 10:41:52;;;;;;;10.27;7.57;;;8.30;99.90;;;;;;485070;245;28067;-71
2024/02/07 10:43:53;;;;;;;9.87;6.13;;;8.20;99.90;;;;;;485065;245;27572;-72
2024/02/07 10:45:54;;;;;;;7.57;5.60;;;8.20;99.90;;;;;;485039;245;27970;-71
2024/02/07 10:47:56;;;;;;;5.90;5.23;;;8.30;99.90;;;;;;485091;245;28366;-72
2024/02/07 10:49:57;;;;;;;5.27;4.70;;;8.40;99.90;;;;;;485080;245;28162;-72
2024/02/07 10:51:58;;;;;;;10.20;5.00;;;8.50;99.90;;;;;;485080;245;29151;-72
2024/02/07 10:54:04;;;;;;;7.57;4.53;;;8.40;99.90;;;;;;485053;245;28646;-72
2024/02/07 10:56:01;;;;;;;10.40;5.47;;;8.40;99.90;;;;;;484655;245;28328;-73
2024/02/07 10:58:02;;;;;;;6.47;4.87;;;8.40;99.90;;;;;;484947;245;27982;-71
2024/02/07 11:00:03;;;;;;;8.30;5.03;;;8.30;99.90;;;;;;485080;245;27987;-72
2024/02/07 11:02:04;;;;;;;8.77;4.77;;;8.30;99.90;;;;;;485045;245;27832;-72
2024/02/07 11:04:06;;;;;;;8.27;4.93;;;8.30;99.90;;;;;;485047;245;28094;-71
2024/02/07 11:06:07;;;;;;;8.30;4.83;;;8.30;99.90;;;;;;485051;245;27821;-74
2024/02/07 11:08:08;;;;;;;5.60;4.57;;;8.20;99.90;;;;;;485065;245;27868;-72
2024/02/07 11:10:09;;;;;;;6.47;4.67;;;8.30;99.90;;;;;;485068;245;27792;-72
2024/02/07 11:12:11;;;;;;;6.40;4.50;;;8.30;99.90;;;;;;485084;245;27947;-71
2024/02/07 11:14:12;;;;;;;5.20;4.47;;;8.20;99.90;;;;;;485121;245;27834;-72
2024/02/07 11:16:13;;;;;;;6.50;5.03;;;8.20;99.90;;;;;;485099;245;27672;-72
2024/02/07 11:18:14;;;;;;;7.10;4.90;;;8.20;99.90;;;;;;485089;245;28020;-72
2024/02/07 11:20:16;;;;;;;11.00;5.30;;;8.20;99.90;;;;;;485082;245;28085;-72
2024/02/07 11:22:17;;;;;;;9.50;4.60;;;8.30;99.90;;;;;;485109;245;28073;-71
2024/02/07 11:24:21;;;;;;;5.43;4.47;;;8.30;99.90;;;;;;485148;245;28508;-71
2024/02/07 11:26:19;;;;;;;6.40;4.60;;;8.30;99.90;;;;;;484807;245;28585;-72
2024/02/07 11:28:21;;;;;;;7.00;4.47;;;8.30;99.90;;;;;;485120;245;28419;-71
2024/02/07 11:30:22;;;;;;;8.63;4.20;;;8.40;99.90;;;;;;485098;245;28357;-72
2024/02/07 11:32:23;;;;;;;6.37;4.20;;;8.40;99.90;;;;;;485115;245;28913;-71
2024/02/07 11:34:24;;;;;;;4.57;4.03;;;8.40;99.90;;;;;;485120;245;27985;-71